createdAt,value
2023-04-07T00:00:10.909Z,6.89
2023-04-07T00:01:10.963Z,6.89
2023-04-07T00:02:10.944Z,6.89
2023-04-07T00:03:11.026Z,6.88
2023-04-07T00:04:10.456Z,6.88
2023-04-07T00:05:10.844Z,6.87
2023-04-07T00:06:11.531Z,6.85
2023-04-07T00:07:11.512Z,6.82
2023-04-07T00:08:10.828Z,6.81
2023-04-07T00:09:10.818Z,6.79
2023-04-07T00:10:11.491Z,6.77
2023-04-07T00:11:10.801Z,6.75
2023-04-07T00:12:10.771Z,6.73
2023-04-07T00:13:10.760Z,6.72
2023-04-07T00:14:10.758Z,6.70
2023-04-07T00:15:10.759Z,6.68
2023-04-07T00:16:11.475Z,6.67
2023-04-07T00:17:10.719Z,6.65
2023-04-07T00:18:11.557Z,6.63
2023-04-07T00:19:10.682Z,6.61
2023-04-07T00:20:10.365Z,6.60
2023-04-07T00:21:10.636Z,6.58
2023-04-07T00:22:10.638Z,6.56
2023-04-07T00:23:10.635Z,6.55
2023-04-07T00:24:10.857Z,6.57
2023-04-07T00:25:10.598Z,6.58
2023-04-07T00:26:10.564Z,6.59
2023-04-07T00:27:11.300Z,6.61
2023-04-07T00:28:09.888Z,6.63
2023-04-07T00:29:10.548Z,6.64
2023-04-07T00:30:11.202Z,6.64
2023-04-07T00:31:10.541Z,6.64
2023-04-07T00:32:10.502Z,6.63
2023-04-07T00:33:11.204Z,6.61
2023-04-07T00:34:10.472Z,6.60
2023-04-07T00:35:11.128Z,6.59
2023-04-07T00:36:09.783Z,6.59
2023-04-07T00:37:10.433Z,6.58
2023-04-07T00:38:10.415Z,6.57
2023-04-07T00:39:10.411Z,6.55
2023-04-07T00:40:11.069Z,6.55
2023-04-07T00:41:10.356Z,6.55
2023-04-07T00:42:10.364Z,6.55
2023-04-07T00:43:10.355Z,6.55
2023-04-07T00:44:09.605Z,6.55
2023-04-07T00:45:10.335Z,6.54
2023-04-07T00:46:10.334Z,6.54
2023-04-07T00:47:10.303Z,6.55
2023-04-07T00:48:10.281Z,6.55
2023-04-07T00:49:11.460Z,6.54
2023-04-07T00:50:10.252Z,6.54
2023-04-07T00:51:10.234Z,6.52
2023-04-07T00:52:09.490Z,6.51
2023-04-07T00:53:10.217Z,6.50
2023-04-07T00:54:10.222Z,6.50
2023-04-07T00:55:10.182Z,6.49
2023-04-07T00:56:10.150Z,6.49
2023-04-07T00:57:09.928Z,6.49
2023-04-07T00:58:09.910Z,6.48
2023-04-07T00:59:09.908Z,6.48
2023-04-07T01:00:10.133Z,6.47
2023-04-07T01:01:09.913Z,6.45
2023-04-07T01:02:10.136Z,6.44
2023-04-07T01:03:10.094Z,6.43
2023-04-07T01:04:10.170Z,6.42
2023-04-07T01:05:10.396Z,6.41
2023-04-07T01:06:09.918Z,6.39
2023-04-07T01:07:10.023Z,6.37
2023-04-07T01:08:09.947Z,6.35
2023-04-07T01:09:10.014Z,6.32
2023-04-07T01:10:09.911Z,6.30
2023-04-07T01:11:09.920Z,6.27
2023-04-07T01:12:10.017Z,6.25
2023-04-07T01:13:09.941Z,6.23
2023-04-07T01:14:09.920Z,6.20
2023-04-07T01:15:10.644Z,6.19
2023-04-07T01:16:10.704Z,6.18
2023-04-07T01:17:10.620Z,6.17
2023-04-07T01:18:10.601Z,6.15
2023-04-07T01:19:09.905Z,6.13
2023-04-07T01:20:09.889Z,6.10
2023-04-07T01:21:09.826Z,6.09
2023-04-07T01:22:10.546Z,6.06
2023-04-07T01:23:09.822Z,6.03
2023-04-07T01:24:09.269Z,6.00
2023-04-07T01:25:09.778Z,5.95
2023-04-07T01:26:09.755Z,5.90
2023-04-07T01:27:10.434Z,5.87
2023-04-07T01:28:09.739Z,5.82
2023-04-07T01:29:09.725Z,5.76
2023-04-07T01:30:09.733Z,5.70
2023-04-07T01:31:09.683Z,5.62
2023-04-07T01:32:09.804Z,5.57
2023-04-07T01:33:09.750Z,5.52
2023-04-07T01:34:10.341Z,5.47
2023-04-07T01:35:09.647Z,5.44
2023-04-07T01:36:09.617Z,5.41
2023-04-07T01:37:09.690Z,5.38
2023-04-07T01:38:09.612Z,5.34
2023-04-07T01:39:09.601Z,5.29
2023-04-07T01:40:08.956Z,5.25
2023-04-07T01:41:09.542Z,5.23
2023-04-07T01:42:09.567Z,5.20
2023-04-07T01:43:09.541Z,5.17
2023-04-07T01:44:09.042Z,5.13
2023-04-07T01:45:09.527Z,5.09
2023-04-07T01:46:09.487Z,5.04
2023-04-07T01:47:09.494Z,5.00
2023-04-07T01:48:08.833Z,4.94
2023-04-07T01:49:09.457Z,4.89
2023-04-07T01:50:09.442Z,4.87
2023-04-07T01:51:09.420Z,4.83
2023-04-07T01:52:09.420Z,4.78
2023-04-07T01:53:10.066Z,4.73
2023-04-07T01:54:09.398Z,4.71
2023-04-07T01:55:10.104Z,4.67
2023-04-07T01:56:08.655Z,4.64
2023-04-07T01:57:09.364Z,4.62
2023-04-07T01:58:09.338Z,4.64
2023-04-07T01:59:09.327Z,4.68
2023-04-07T02:00:09.327Z,4.69
2023-04-07T02:01:09.313Z,4.69
2023-04-07T02:02:09.312Z,4.67
2023-04-07T02:03:09.382Z,4.62
2023-04-07T02:04:08.691Z,4.57
2023-04-07T02:05:09.241Z,4.51
2023-04-07T02:06:09.231Z,4.43
2023-04-07T02:07:09.196Z,4.38
2023-04-07T02:08:09.201Z,4.33
2023-04-07T02:09:09.208Z,4.31
2023-04-07T02:10:09.169Z,4.29
2023-04-07T02:11:09.161Z,4.25
2023-04-07T02:12:08.463Z,4.21
2023-04-07T02:13:09.127Z,4.15
2023-04-07T02:14:09.799Z,4.08
2023-04-07T02:15:08.456Z,4.02
2023-04-07T02:16:09.122Z,4.01
2023-04-07T02:17:09.816Z,3.99
2023-04-07T02:18:09.307Z,3.95
2023-04-07T02:19:09.050Z,3.91
2023-04-07T02:20:08.414Z,3.89
2023-04-07T02:21:08.455Z,3.86
2023-04-07T02:22:08.991Z,3.83
2023-04-07T02:23:08.998Z,3.78
2023-04-07T02:24:09.009Z,3.75
2023-04-07T02:25:08.970Z,3.72
2023-04-07T02:26:08.963Z,3.68
2023-04-07T02:27:08.957Z,3.64
2023-04-07T02:28:08.201Z,3.61
2023-04-07T02:29:08.926Z,3.58
2023-04-07T02:30:08.935Z,3.54
2023-04-07T02:31:08.889Z,3.50
2023-04-07T02:32:09.625Z,3.47
2023-04-07T02:33:08.964Z,3.45
2023-04-07T02:34:08.850Z,3.41
2023-04-07T02:35:08.841Z,3.37
2023-04-07T02:36:08.471Z,3.32
2023-04-07T02:37:08.833Z,3.29
2023-04-07T02:38:09.483Z,3.25
2023-04-07T02:39:08.789Z,3.21
2023-04-07T02:40:09.466Z,3.17
2023-04-07T02:41:08.771Z,3.17
2023-04-07T02:42:08.732Z,3.18
2023-04-07T02:43:08.752Z,3.15
2023-04-07T02:44:08.015Z,3.12
2023-04-07T02:45:08.746Z,3.08
2023-04-07T02:46:08.779Z,3.07
2023-04-07T02:47:08.660Z,3.07
2023-04-07T02:48:08.667Z,3.04
2023-04-07T02:49:08.650Z,3.00
2023-04-07T02:50:09.323Z,2.95
2023-04-07T02:51:08.675Z,2.89
2023-04-07T02:52:08.014Z,2.83
2023-04-07T02:53:08.612Z,2.78
2023-04-07T02:54:08.598Z,2.76
2023-04-07T02:55:08.567Z,2.74
2023-04-07T02:56:08.578Z,2.75
2023-04-07T02:57:08.517Z,2.76
2023-04-07T02:58:08.530Z,2.77
2023-04-07T02:59:08.573Z,2.78
2023-04-07T03:00:08.509Z,2.76
2023-04-07T03:01:08.509Z,2.75
2023-04-07T03:02:08.648Z,2.73
2023-04-07T03:03:09.267Z,2.71
2023-04-07T03:04:08.815Z,2.70
2023-04-07T03:05:08.439Z,2.68
2023-04-07T03:06:08.425Z,2.66
2023-04-07T03:07:08.385Z,2.64
2023-04-07T03:08:07.676Z,2.63
2023-04-07T03:09:08.386Z,2.65
2023-04-07T03:10:08.384Z,2.66
2023-04-07T03:11:08.584Z,2.66
2023-04-07T03:12:08.324Z,2.66
2023-04-07T03:13:08.399Z,2.66
2023-04-07T03:14:09.014Z,2.65
2023-04-07T03:15:08.312Z,2.64
2023-04-07T03:16:07.567Z,2.64
2023-04-07T03:17:08.053Z,2.64
2023-04-07T03:18:08.324Z,2.62
2023-04-07T03:19:08.026Z,2.62
2023-04-07T03:20:08.011Z,2.65
2023-04-07T03:21:08.245Z,2.69
2023-04-07T03:22:08.945Z,2.70
2023-04-07T03:23:08.863Z,2.71
2023-04-07T03:24:07.452Z,2.70
2023-04-07T03:25:08.029Z,2.70
2023-04-07T03:26:08.158Z,2.71
2023-04-07T03:27:08.125Z,2.73
2023-04-07T03:28:08.157Z,2.76
2023-04-07T03:29:08.789Z,2.77
2023-04-07T03:30:08.108Z,2.78
2023-04-07T03:31:08.128Z,2.77
2023-04-07T03:32:08.051Z,2.77
2023-04-07T03:33:08.286Z,2.76
2023-04-07T03:34:08.729Z,2.76
2023-04-07T03:35:07.407Z,2.78
2023-04-07T03:36:08.835Z,2.81
2023-04-07T03:37:08.751Z,2.83
2023-04-07T03:38:07.999Z,2.85
2023-04-07T03:39:08.728Z,2.87
2023-04-07T03:40:08.702Z,2.89
2023-04-07T03:41:08.693Z,2.92
2023-04-07T03:42:08.679Z,2.94
2023-04-07T03:43:08.618Z,2.98
2023-04-07T03:44:07.917Z,3.06
2023-04-07T03:45:07.924Z,3.12
2023-04-07T03:46:08.654Z,3.16
2023-04-07T03:47:07.861Z,3.19
2023-04-07T03:48:07.925Z,3.22
2023-04-07T03:49:08.530Z,3.23
2023-04-07T03:50:07.841Z,3.25
2023-04-07T03:51:07.834Z,3.26
2023-04-07T03:52:07.792Z,3.27
2023-04-07T03:53:07.796Z,3.29
2023-04-07T03:54:07.789Z,3.31
2023-04-07T03:55:07.785Z,3.33
2023-04-07T03:56:07.763Z,3.35
2023-04-07T03:57:07.773Z,3.35
2023-04-07T03:58:07.749Z,3.36
2023-04-07T03:59:08.408Z,3.36
2023-04-07T04:00:07.938Z,3.37
2023-04-07T04:01:07.700Z,3.38
2023-04-07T04:02:07.844Z,3.39
2023-04-07T04:03:07.788Z,3.42
2023-04-07T04:04:07.886Z,3.44
2023-04-07T04:05:07.690Z,3.46
2023-04-07T04:06:07.630Z,3.49
2023-04-07T04:07:07.594Z,3.52
2023-04-07T04:08:07.616Z,3.54
2023-04-07T04:09:08.270Z,3.56
2023-04-07T04:10:07.585Z,3.57
2023-04-07T04:11:08.295Z,3.58
2023-04-07T04:12:07.535Z,3.58
2023-04-07T04:13:07.565Z,3.58
2023-04-07T04:14:07.533Z,3.59
2023-04-07T04:15:07.514Z,3.60
2023-04-07T04:16:07.533Z,3.62
2023-04-07T04:17:07.466Z,3.65
2023-04-07T04:18:07.511Z,3.66
2023-04-07T04:19:07.481Z,3.68
2023-04-07T04:20:08.122Z,3.70
2023-04-07T04:21:07.437Z,3.72
2023-04-07T04:22:08.176Z,3.74
2023-04-07T04:23:07.411Z,3.75
2023-04-07T04:24:07.392Z,3.77
2023-04-07T04:25:07.388Z,3.78
2023-04-07T04:26:07.416Z,3.79
2023-04-07T04:27:07.337Z,3.77
2023-04-07T04:28:07.396Z,3.76
2023-04-07T04:29:07.335Z,3.75
2023-04-07T04:30:07.365Z,3.74
2023-04-07T04:31:07.363Z,3.74
2023-04-07T04:32:07.278Z,3.74
2023-04-07T04:33:07.315Z,3.74
2023-04-07T04:34:07.260Z,3.74
2023-04-07T04:35:07.924Z,3.73
2023-04-07T04:36:07.259Z,3.71
2023-04-07T04:37:07.200Z,3.71
2023-04-07T04:38:07.210Z,3.71
2023-04-07T04:39:07.213Z,3.71
2023-04-07T04:40:07.237Z,3.71
2023-04-07T04:41:07.855Z,3.73
2023-04-07T04:42:07.164Z,3.75
2023-04-07T04:43:07.196Z,3.75
2023-04-07T04:44:07.341Z,3.75
2023-04-07T04:45:07.122Z,3.75
2023-04-07T04:46:07.111Z,3.77
2023-04-07T04:47:07.815Z,3.78
2023-04-07T04:48:07.116Z,3.79
2023-04-07T04:49:07.750Z,3.79
2023-04-07T04:50:07.052Z,3.79
2023-04-07T04:51:07.048Z,3.78
2023-04-07T04:52:07.702Z,3.77
2023-04-07T04:53:07.004Z,3.75
2023-04-07T04:54:07.709Z,3.74
2023-04-07T04:55:06.996Z,3.72
2023-04-07T04:56:06.984Z,3.70
2023-04-07T04:57:06.971Z,3.66
2023-04-07T04:58:06.921Z,3.63
2023-04-07T04:59:06.947Z,3.61
2023-04-07T05:00:07.610Z,3.57
2023-04-07T05:01:07.200Z,3.53
2023-04-07T05:02:07.678Z,3.49
2023-04-07T05:03:07.038Z,3.45
2023-04-07T05:04:07.097Z,3.42
2023-04-07T05:05:07.552Z,3.38
2023-04-07T05:06:06.842Z,3.35
2023-04-07T05:07:06.833Z,3.31
2023-04-07T05:08:07.493Z,3.27
2023-04-07T05:09:06.861Z,3.25
2023-04-07T05:10:06.796Z,3.21
2023-04-07T05:11:06.772Z,3.18
2023-04-07T05:12:06.769Z,3.15
2023-04-07T05:13:07.467Z,3.12
2023-04-07T05:14:06.729Z,3.10
2023-04-07T05:15:06.799Z,3.07
2023-04-07T05:16:06.745Z,3.03
2023-04-07T05:17:07.426Z,2.99
2023-04-07T05:18:06.663Z,2.96
2023-04-07T05:19:06.678Z,2.93
2023-04-07T05:20:06.649Z,2.90
2023-04-07T05:21:06.656Z,2.87
2023-04-07T05:22:06.642Z,2.85
2023-04-07T05:23:07.306Z,2.83
2023-04-07T05:24:08.151Z,2.86
2023-04-07T05:25:06.820Z,2.92
2023-04-07T05:26:07.253Z,2.96
2023-04-07T05:27:06.590Z,2.99
2023-04-07T05:28:07.228Z,3.02
2023-04-07T05:29:06.555Z,3.03
2023-04-07T05:30:06.523Z,3.05
2023-04-07T05:31:07.806Z,3.05
2023-04-07T05:32:06.564Z,3.05
2023-04-07T05:33:06.474Z,3.07
2023-04-07T05:34:06.469Z,3.09
2023-04-07T05:35:06.463Z,3.11
2023-04-07T05:36:06.485Z,3.13
2023-04-07T05:37:06.467Z,3.15
2023-04-07T05:38:06.659Z,3.16
2023-04-07T05:39:06.138Z,3.16
2023-04-07T05:40:07.096Z,3.16
2023-04-07T05:41:06.387Z,3.16
2023-04-07T05:42:06.133Z,3.15
2023-04-07T05:43:07.052Z,3.12
2023-04-07T05:44:06.330Z,3.11
2023-04-07T05:45:06.999Z,3.11
2023-04-07T05:46:07.080Z,3.11
2023-04-07T05:47:05.933Z,3.11
2023-04-07T05:48:07.062Z,3.14
2023-04-07T05:49:18.779Z,3.18
2023-04-07T05:50:07.251Z,3.23
2023-04-07T05:51:06.940Z,3.28
2023-04-07T05:52:06.904Z,3.34
2023-04-07T05:53:06.194Z,3.42
2023-04-07T05:54:06.261Z,3.51
2023-04-07T05:55:06.192Z,3.62
2023-04-07T05:56:06.190Z,3.76
2023-04-07T05:57:06.174Z,3.91
2023-04-07T05:58:06.151Z,4.04
2023-04-07T05:59:06.862Z,4.16
2023-04-07T06:00:06.862Z,4.27
2023-04-07T06:01:06.822Z,4.38
2023-04-07T06:02:06.207Z,4.47
2023-04-07T06:03:06.158Z,4.56
2023-04-07T06:04:06.795Z,4.64
2023-04-07T06:05:06.818Z,4.73
2023-04-07T06:06:06.762Z,4.79
2023-04-07T06:07:06.261Z,4.84
2023-04-07T06:08:06.005Z,4.90
2023-04-07T06:09:07.011Z,4.98
2023-04-07T06:10:05.980Z,5.04
2023-04-07T06:11:05.978Z,5.08
2023-04-07T06:12:05.961Z,5.15
2023-04-07T06:13:05.925Z,5.19
2023-04-07T06:14:05.952Z,5.22
2023-04-07T06:15:06.142Z,5.24
2023-04-07T06:16:05.900Z,5.28
2023-04-07T06:17:05.988Z,5.33
2023-04-07T06:18:05.850Z,5.36
2023-04-07T06:19:05.860Z,5.39
2023-04-07T06:20:05.863Z,5.44
2023-04-07T06:21:05.892Z,5.49
2023-04-07T06:22:05.830Z,5.51
2023-04-07T06:23:06.058Z,5.57
2023-04-07T06:24:05.802Z,5.65
2023-04-07T06:25:06.472Z,5.74
2023-04-07T06:26:05.782Z,5.82
2023-04-07T06:27:06.476Z,5.88
2023-04-07T06:28:05.727Z,5.90
2023-04-07T06:29:05.733Z,5.91
2023-04-07T06:30:05.721Z,5.94
2023-04-07T06:31:05.748Z,5.96
2023-04-07T06:32:05.689Z,5.94
2023-04-07T06:33:05.711Z,5.93
2023-04-07T06:34:05.672Z,5.92
2023-04-07T06:35:05.653Z,5.90
2023-04-07T06:36:06.302Z,5.90
2023-04-07T06:37:05.625Z,5.93
2023-04-07T06:38:06.360Z,5.95
2023-04-07T06:39:05.830Z,5.99
2023-04-07T06:40:05.582Z,6.01
2023-04-07T06:41:05.569Z,6.04
2023-04-07T06:42:06.301Z,6.03
2023-04-07T06:43:05.536Z,6.05
2023-04-07T06:44:07.603Z,6.06
2023-04-07T06:45:05.524Z,6.05
2023-04-07T06:46:05.568Z,6.02
2023-04-07T06:47:05.490Z,5.99
2023-04-07T06:48:05.553Z,6.01
2023-04-07T06:49:05.480Z,6.05
2023-04-07T06:50:05.492Z,6.09
2023-04-07T06:51:05.444Z,6.12
2023-04-07T06:52:05.209Z,6.14
2023-04-07T06:53:06.602Z,6.16
2023-04-07T06:54:05.612Z,6.21
2023-04-07T06:55:05.624Z,6.27
2023-04-07T06:56:06.035Z,6.36
2023-04-07T06:57:05.354Z,6.44
2023-04-07T06:58:05.339Z,6.53
2023-04-07T06:59:04.680Z,6.64
2023-04-07T07:00:05.364Z,6.77
2023-04-07T07:01:05.309Z,6.86
2023-04-07T07:02:05.367Z,6.94
2023-04-07T07:03:05.369Z,7.05
2023-04-07T07:04:05.340Z,7.14
2023-04-07T07:05:05.241Z,7.21
2023-04-07T07:06:05.236Z,7.23
2023-04-07T07:07:04.676Z,7.20
2023-04-07T07:08:05.895Z,7.16
2023-04-07T07:09:05.866Z,7.17
2023-04-07T07:10:05.188Z,7.19
2023-04-07T07:11:05.162Z,7.17
2023-04-07T07:12:05.202Z,7.19
2023-04-07T07:13:05.111Z,7.26
2023-04-07T07:14:05.127Z,7.34
2023-04-07T07:15:05.116Z,7.41
2023-04-07T07:16:05.135Z,7.46
2023-04-07T07:17:05.770Z,7.52
2023-04-07T07:18:05.080Z,7.62
2023-04-07T07:19:05.304Z,7.67
2023-04-07T07:20:05.059Z,7.73
2023-04-07T07:21:05.024Z,7.78
2023-04-07T07:22:05.017Z,7.79
2023-04-07T07:23:04.987Z,7.83
2023-04-07T07:24:04.991Z,7.91
2023-04-07T07:25:04.971Z,7.96
2023-04-07T07:26:04.983Z,7.97
2023-04-07T07:27:05.491Z,7.97
2023-04-07T07:28:04.911Z,7.98
2023-04-07T07:29:04.950Z,8.04
2023-04-07T07:30:04.902Z,8.11
2023-04-07T07:31:04.945Z,8.22
2023-04-07T07:32:04.893Z,8.26
2023-04-07T07:33:05.169Z,8.26
2023-04-07T07:34:04.230Z,8.28
2023-04-07T07:35:04.845Z,8.31
2023-04-07T07:36:04.861Z,8.34
2023-04-07T07:37:04.814Z,8.36
2023-04-07T07:38:04.785Z,8.41
2023-04-07T07:39:04.784Z,8.39
2023-04-07T07:40:04.771Z,8.37
2023-04-07T07:41:04.749Z,8.39
2023-04-07T07:42:04.741Z,8.44
2023-04-07T07:43:04.960Z,8.55
2023-04-07T07:44:04.721Z,8.62
2023-04-07T07:45:04.703Z,8.67
2023-04-07T07:46:04.704Z,8.70
2023-04-07T07:47:04.687Z,8.75
2023-04-07T07:48:04.661Z,8.78
2023-04-07T07:49:04.879Z,8.78
2023-04-07T07:50:04.644Z,8.76
2023-04-07T07:51:05.301Z,8.74
2023-04-07T07:52:04.607Z,8.72
2023-04-07T07:53:04.762Z,8.74
2023-04-07T07:54:04.553Z,8.76
2023-04-07T07:55:04.587Z,8.77
2023-04-07T07:56:04.564Z,8.82
2023-04-07T07:57:04.538Z,8.88
2023-04-07T07:58:05.210Z,8.90
2023-04-07T07:59:04.491Z,8.95
2023-04-07T08:00:04.491Z,9.00
2023-04-07T08:01:04.470Z,9.03
2023-04-07T08:02:04.489Z,9.06
2023-04-07T08:03:04.526Z,9.05
2023-04-07T08:04:04.432Z,9.08
2023-04-07T08:05:04.485Z,9.12
2023-04-07T08:06:04.637Z,9.17
2023-04-07T08:07:04.168Z,9.22
2023-04-07T08:08:04.396Z,9.26
2023-04-07T08:09:05.051Z,9.33
2023-04-07T08:10:04.358Z,9.39
2023-04-07T08:11:04.340Z,9.41
2023-04-07T08:12:04.320Z,9.42
2023-04-07T08:13:04.308Z,9.43
2023-04-07T08:14:04.314Z,9.47
2023-04-07T08:15:04.292Z,9.50
2023-04-07T08:16:04.307Z,9.48
2023-04-07T08:17:04.277Z,9.44
2023-04-07T08:18:04.281Z,9.37
2023-04-07T08:19:04.208Z,9.35
2023-04-07T08:20:04.231Z,9.34
2023-04-07T08:21:04.208Z,9.31
2023-04-07T08:22:04.209Z,9.31
2023-04-07T08:23:04.187Z,9.33
2023-04-07T08:24:04.160Z,9.36
2023-04-07T08:25:04.883Z,9.39
2023-04-07T08:26:04.881Z,9.39
2023-04-07T08:27:04.845Z,9.39
2023-04-07T08:28:04.803Z,9.38
2023-04-07T08:29:04.133Z,9.39
2023-04-07T08:30:04.080Z,9.34
2023-04-07T08:31:04.193Z,9.35
2023-04-07T08:32:04.049Z,9.37
2023-04-07T08:33:04.055Z,9.36
2023-04-07T08:34:04.006Z,9.35
2023-04-07T08:35:04.023Z,9.36
2023-04-07T08:36:03.381Z,9.35
2023-04-07T08:37:03.991Z,9.36
2023-04-07T08:38:03.979Z,9.40
2023-04-07T08:39:03.936Z,9.43
2023-04-07T08:40:04.617Z,9.39
2023-04-07T08:41:03.925Z,9.39
2023-04-07T08:42:03.921Z,9.33
2023-04-07T08:43:03.937Z,9.31
2023-04-07T08:44:04.569Z,9.33
2023-04-07T08:45:03.875Z,9.40
2023-04-07T08:46:03.948Z,9.44
2023-04-07T08:47:03.891Z,9.51
2023-04-07T08:48:04.554Z,9.57
2023-04-07T08:49:03.796Z,9.65
2023-04-07T08:50:04.477Z,9.69
2023-04-07T08:51:03.823Z,9.75
2023-04-07T08:52:05.221Z,9.84
2023-04-07T08:53:05.273Z,9.92
2023-04-07T08:54:03.745Z,9.94
2023-04-07T08:55:03.766Z,9.95
2023-04-07T08:56:03.750Z,9.98
2023-04-07T08:57:03.730Z,10.04
2023-04-07T08:58:03.732Z,10.13
2023-04-07T08:59:04.427Z,10.22
2023-04-07T09:00:03.340Z,10.19
2023-04-07T09:01:03.705Z,10.18
2023-04-07T09:02:03.697Z,10.22
2023-04-07T09:03:03.744Z,10.19
2023-04-07T09:04:03.664Z,10.20
2023-04-07T09:05:03.314Z,10.21
2023-04-07T09:06:02.870Z,10.21
2023-04-07T09:07:03.587Z,10.18
2023-04-07T09:08:03.564Z,10.15
2023-04-07T09:09:03.605Z,10.16
2023-04-07T09:10:04.222Z,10.17
2023-04-07T09:11:04.261Z,10.12
2023-04-07T09:12:04.185Z,10.09
2023-04-07T09:13:03.545Z,10.09
2023-04-07T09:14:02.818Z,10.15
2023-04-07T09:15:03.471Z,10.20
2023-04-07T09:16:02.772Z,10.26
2023-04-07T09:17:03.445Z,10.32
2023-04-07T09:18:02.879Z,10.29
2023-04-07T09:19:03.400Z,10.28
2023-04-07T09:20:03.407Z,10.28
2023-04-07T09:21:03.385Z,10.31
2023-04-07T09:22:02.889Z,10.33
2023-04-07T09:23:03.356Z,10.34
2023-04-07T09:24:03.347Z,10.35
2023-04-07T09:25:03.352Z,10.37
2023-04-07T09:26:03.318Z,10.44
2023-04-07T09:27:03.302Z,10.50
2023-04-07T09:28:03.295Z,10.57
2023-04-07T09:29:03.258Z,10.58
2023-04-07T09:30:03.294Z,10.59
2023-04-07T09:31:03.251Z,10.59
2023-04-07T09:32:03.288Z,10.68
2023-04-07T09:33:03.241Z,10.75
2023-04-07T09:34:03.203Z,10.74
2023-04-07T09:35:03.187Z,10.69
2023-04-07T09:36:03.236Z,10.67
2023-04-07T09:37:03.170Z,10.63
2023-04-07T09:38:03.190Z,10.69
2023-04-07T09:39:03.873Z,10.76
2023-04-07T09:40:03.179Z,10.86
2023-04-07T09:41:03.131Z,10.88
2023-04-07T09:42:03.756Z,10.85
2023-04-07T09:43:03.101Z,10.88
2023-04-07T09:44:03.063Z,10.93
2023-04-07T09:45:03.066Z,11.01
2023-04-07T09:46:03.064Z,10.96
2023-04-07T09:47:03.025Z,10.98
2023-04-07T09:48:03.259Z,10.93
2023-04-07T09:49:03.005Z,10.90
2023-04-07T09:50:02.983Z,10.92
2023-04-07T09:51:02.972Z,10.97
2023-04-07T09:52:03.009Z,10.93
2023-04-07T09:53:02.946Z,10.94
2023-04-07T09:54:02.945Z,10.95
2023-04-07T09:55:02.927Z,10.94
2023-04-07T09:56:05.072Z,10.91
2023-04-07T09:57:02.898Z,10.81
2023-04-07T09:58:02.896Z,10.68
2023-04-07T09:59:02.898Z,10.54
2023-04-07T10:00:02.867Z,10.39
2023-04-07T10:01:02.885Z,10.24
2023-04-07T10:02:03.652Z,10.10
2023-04-07T10:03:02.426Z,9.98
2023-04-07T10:04:02.562Z,9.94
2023-04-07T10:05:04.995Z,9.98
2023-04-07T10:06:02.780Z,10.03
2023-04-07T10:07:02.758Z,10.08
2023-04-07T10:08:02.747Z,10.12
2023-04-07T10:09:02.735Z,10.18
2023-04-07T10:10:02.720Z,10.23
2023-04-07T10:11:01.969Z,10.27
2023-04-07T10:12:02.708Z,10.35
2023-04-07T10:13:02.018Z,10.46
2023-04-07T10:14:02.434Z,10.56
2023-04-07T10:15:02.458Z,10.72
2023-04-07T10:16:02.643Z,10.89
2023-04-07T10:17:02.699Z,11.07
2023-04-07T10:18:02.540Z,11.19
2023-04-07T10:19:03.338Z,11.35
2023-04-07T10:20:02.583Z,11.49
2023-04-07T10:21:02.393Z,11.60
2023-04-07T10:22:02.478Z,11.61
2023-04-07T10:23:02.549Z,11.63
2023-04-07T10:24:02.551Z,11.65
2023-04-07T10:25:02.490Z,11.68
2023-04-07T10:26:02.587Z,11.65
2023-04-07T10:27:02.488Z,11.63
2023-04-07T10:28:02.433Z,11.61
2023-04-07T10:29:01.863Z,11.55
2023-04-07T10:30:02.706Z,11.46
2023-04-07T10:31:03.179Z,11.41
2023-04-07T10:32:03.148Z,11.39
2023-04-07T10:33:02.543Z,11.31
2023-04-07T10:34:03.113Z,11.17
2023-04-07T10:35:02.406Z,11.06
2023-04-07T10:36:03.145Z,10.97
2023-04-07T10:37:03.065Z,10.86
2023-04-07T10:38:03.095Z,10.68
2023-04-07T10:39:02.333Z,10.49
2023-04-07T10:40:02.350Z,10.26
2023-04-07T10:41:03.020Z,10.12
2023-04-07T10:42:02.313Z,10.06
2023-04-07T10:43:02.272Z,10.03
2023-04-07T10:44:02.256Z,9.96
2023-04-07T10:45:02.991Z,9.86
2023-04-07T10:46:03.005Z,9.76
2023-04-07T10:47:02.932Z,9.72
2023-04-07T10:48:02.944Z,9.68
2023-04-07T10:49:02.868Z,9.67
2023-04-07T10:50:02.854Z,9.69
2023-04-07T10:51:02.198Z,9.69
2023-04-07T10:52:02.148Z,9.67
2023-04-07T10:53:02.132Z,9.69
2023-04-07T10:54:02.113Z,9.75
2023-04-07T10:55:02.125Z,9.81
2023-04-07T10:56:02.118Z,9.88
2023-04-07T10:57:02.114Z,9.91
2023-04-07T10:58:02.112Z,9.95
2023-04-07T10:59:02.058Z,9.97
2023-04-07T11:00:02.724Z,9.98
2023-04-07T11:01:02.028Z,9.95
2023-04-07T11:02:02.092Z,9.97
2023-04-07T11:03:02.103Z,10.01
2023-04-07T11:04:02.215Z,10.06
2023-04-07T11:05:02.643Z,10.12
2023-04-07T11:06:01.225Z,10.14
2023-04-07T11:07:01.940Z,10.22
2023-04-07T11:08:01.917Z,10.36
2023-04-07T11:09:01.936Z,10.50
2023-04-07T11:10:01.899Z,10.63
2023-04-07T11:11:01.915Z,10.73
2023-04-07T11:12:01.901Z,10.83
2023-04-07T11:13:01.856Z,10.92
2023-04-07T11:14:01.120Z,10.98
2023-04-07T11:15:01.815Z,11.01
2023-04-07T11:16:01.834Z,11.05
2023-04-07T11:17:01.481Z,10.99
2023-04-07T11:18:01.814Z,11.03
2023-04-07T11:19:01.783Z,11.09
2023-04-07T11:20:01.737Z,11.12
2023-04-07T11:21:01.768Z,11.22
2023-04-07T11:22:01.775Z,11.25
2023-04-07T11:23:00.986Z,11.24
2023-04-07T11:24:01.717Z,11.14
2023-04-07T11:25:00.999Z,11.10
2023-04-07T11:26:01.732Z,11.14
2023-04-07T11:27:01.677Z,11.15
2023-04-07T11:28:01.656Z,11.13
2023-04-07T11:29:00.923Z,11.06
2023-04-07T11:30:00.931Z,11.05
2023-04-07T11:31:00.965Z,11.08
2023-04-07T11:32:01.926Z,11.14
2023-04-07T11:33:01.003Z,11.18
2023-04-07T11:34:01.611Z,11.18
2023-04-07T11:35:01.592Z,11.03
2023-04-07T11:36:01.013Z,10.98
2023-04-07T11:37:01.585Z,11.03
2023-04-07T11:38:00.827Z,11.23
2023-04-07T11:39:00.910Z,11.33
2023-04-07T11:40:01.520Z,11.51
2023-04-07T11:41:00.905Z,11.67
2023-04-07T11:42:01.460Z,11.87
2023-04-07T11:43:01.469Z,12.18
2023-04-07T11:44:01.435Z,12.34
2023-04-07T11:45:01.440Z,12.23
2023-04-07T11:46:00.954Z,12.03
2023-04-07T11:47:01.535Z,12.01
2023-04-07T11:48:01.410Z,12.03
2023-04-07T11:49:01.369Z,11.94
2023-04-07T11:50:01.352Z,11.92
2023-04-07T11:51:01.323Z,11.99
2023-04-07T11:52:01.339Z,12.00
2023-04-07T11:53:01.987Z,12.01
2023-04-07T11:54:01.000Z,12.08
2023-04-07T11:55:01.297Z,12.24
2023-04-07T11:56:01.243Z,12.32
2023-04-07T11:57:01.268Z,12.80
2023-04-07T11:58:01.260Z,13.17
2023-04-07T11:59:01.230Z,13.52
2023-04-07T12:00:01.223Z,13.77
2023-04-07T12:01:01.186Z,13.98
2023-04-07T12:02:00.507Z,14.34
2023-04-07T12:03:01.266Z,14.59
2023-04-07T12:04:01.556Z,14.67
2023-04-07T12:05:01.231Z,14.76
2023-04-07T12:06:01.883Z,14.78
2023-04-07T12:07:01.117Z,15.13
2023-04-07T12:08:01.101Z,15.54
2023-04-07T12:09:01.090Z,15.60
2023-04-07T12:10:00.357Z,15.60
2023-04-07T12:11:01.749Z,15.26
2023-04-07T12:12:01.051Z,15.18
2023-04-07T12:13:01.042Z,14.94
2023-04-07T12:14:01.031Z,14.65
2023-04-07T12:15:01.024Z,14.39
2023-04-07T12:16:00.996Z,14.23
2023-04-07T12:17:01.734Z,14.13
2023-04-07T12:18:01.038Z,13.95
2023-04-07T12:19:00.461Z,13.73
2023-04-07T12:20:00.940Z,13.63
2023-04-07T12:21:00.908Z,13.55
2023-04-07T12:22:00.940Z,13.54
2023-04-07T12:23:00.900Z,13.39
2023-04-07T12:24:00.901Z,13.26
2023-04-07T12:25:00.902Z,13.05
2023-04-07T12:26:00.144Z,12.93
2023-04-07T12:27:00.883Z,12.71
2023-04-07T12:28:00.840Z,12.64
2023-04-07T12:29:00.860Z,12.64
2023-04-07T12:30:01.031Z,12.59
2023-04-07T12:31:00.789Z,12.55
2023-04-07T12:32:00.824Z,12.50
2023-04-07T12:33:00.384Z,12.49
2023-04-07T12:34:01.476Z,12.48
2023-04-07T12:35:00.353Z,12.51
2023-04-07T12:36:00.829Z,12.56
2023-04-07T12:37:00.406Z,12.57
2023-04-07T12:38:00.711Z,12.61
2023-04-07T12:39:00.694Z,12.73
2023-04-07T12:40:00.580Z,12.80
2023-04-07T12:41:00.647Z,12.87
2023-04-07T12:41:59.912Z,12.91
2023-04-07T12:43:00.491Z,12.91
2023-04-07T12:44:00.641Z,12.96
2023-04-07T12:45:00.607Z,13.02
2023-04-07T12:46:14.904Z,13.10
2023-04-07T12:47:00.485Z,13.09
2023-04-07T12:48:00.619Z,13.02
2023-04-07T12:49:01.300Z,12.93
2023-04-07T12:49:59.788Z,12.95
2023-04-07T12:50:59.998Z,12.95
2023-04-07T12:52:01.168Z,12.83
2023-04-07T12:53:00.488Z,12.87
2023-04-07T12:54:01.214Z,13.03
2023-04-07T12:55:01.161Z,13.21
2023-04-07T12:56:00.456Z,13.44
2023-04-07T12:57:01.151Z,13.73
2023-04-07T12:58:00.436Z,13.91
2023-04-07T12:59:00.406Z,14.07
2023-04-07T13:00:01.132Z,14.15
2023-04-07T13:00:59.933Z,14.10
2023-04-07T13:02:01.292Z,14.24
2023-04-07T13:03:00.455Z,14.35
2023-04-07T13:04:00.460Z,14.37
2023-04-07T13:05:01.050Z,14.38
2023-04-07T13:06:01.028Z,14.66
2023-04-07T13:07:00.297Z,15.10
2023-04-07T13:08:01.065Z,15.46
2023-04-07T13:09:00.026Z,16.11
2023-04-07T13:10:00.252Z,16.35